Mc Farland, California
Current Conditions -  °F | °C
As of 6:54 PM on Monday 26 Jan 2015 (Local Time) from KBFL Reporting Station
Haze Haze  
Wind Chill: 52°   Ceiling: 10000
Heat Index: 52°   Visibility: 5mi
Dew Point: 47°   Wind: 6mph
Humidity: 83%   Direction: 320°NW
Pressure: 30.02"   Gusts: NA
Location:  35.638°N, 119.198°W
Report Text: KBFL 270254Z 32005KT 5SM HZ OVC100 11/08 A3002 RMK AO2 SLP166 T01110083 53012
Loading
Personal Weather Stations






























Interactive Weather Map New forecast layout! Learn more

10-Day Weather Forecast

Advertisements
Track Severe Weather on mobile